Terminal Aerodrome Forecast
Issued by NWS

Home | Current Version | Previous Version | Text Only | Print | Product List | Glossary On
Versions: 1 2 3 4 5 6 7 8 9 10 11 12 13 14
000
FTUS42 TJSJ 070530
TAFJBQ
TAF
TJBQ 070530Z 0706/0806 11005KT P6SM SKC
     FM071300 08015G20KT P6SM FEW030 SCT050
     FM072300 11005KT P6SM FEW025
      AMD NOT SKED TIL 071100=

USA.gov is the U.S. government's official web portal to all federal, state and local government web resources and services.